createdAt,value
2018-08-22T00:00:10.649Z,1013.40
2018-08-22T00:01:10.680Z,1013.44
2018-08-22T00:02:10.697Z,1013.40
2018-08-22T00:03:10.722Z,1013.41
2018-08-22T00:04:10.745Z,1013.38
2018-08-22T00:05:10.768Z,1013.38
2018-08-22T00:06:10.796Z,1013.38
2018-08-22T00:07:10.819Z,1013.40
2018-08-22T00:08:10.842Z,1013.40
2018-08-22T00:09:10.867Z,1013.43
2018-08-22T00:10:10.891Z,1013.32
2018-08-22T00:11:10.912Z,1013.37
2018-08-22T00:12:10.935Z,1013.40
2018-08-22T00:13:10.960Z,1013.36
2018-08-22T00:14:10.987Z,1013.40
2018-08-22T00:15:11.052Z,1013.37
2018-08-22T00:16:11.032Z,1013.37
2018-08-22T00:17:11.057Z,1013.37
2018-08-22T00:18:11.081Z,1013.37
2018-08-22T00:19:11.104Z,1013.37
2018-08-22T00:20:11.127Z,1013.33
2018-08-22T00:21:11.153Z,1013.32
2018-08-22T00:22:11.174Z,1013.31
2018-08-22T00:23:11.197Z,1013.29
2018-08-22T00:24:11.220Z,1013.29
2018-08-22T00:25:11.293Z,1013.30
2018-08-22T00:26:11.271Z,1013.24
2018-08-22T00:27:11.297Z,1013.29
2018-08-22T00:28:11.323Z,1013.26
2018-08-22T00:29:11.422Z,1013.29
2018-08-22T00:30:11.367Z,1013.28
2018-08-22T00:31:11.390Z,1013.30
2018-08-22T00:32:11.413Z,1013.27
2018-08-22T00:33:11.437Z,1013.24
2018-08-22T00:34:11.459Z,1013.25
2018-08-22T00:35:11.481Z,1013.23
2018-08-22T00:36:11.507Z,1013.26
2018-08-22T00:37:11.529Z,1013.24
2018-08-22T00:38:11.556Z,1013.24
2018-08-22T00:39:11.577Z,1013.23
2018-08-22T00:40:11.604Z,1013.26
2018-08-22T00:41:11.626Z,1013.23
2018-08-22T00:42:11.649Z,1013.21
2018-08-22T00:43:11.674Z,1013.23
2018-08-22T00:44:11.697Z,1013.19
2018-08-22T00:45:11.720Z,1013.23
2018-08-22T00:46:11.744Z,1013.26
2018-08-22T00:47:11.766Z,1013.22
2018-08-22T00:48:11.791Z,1013.25
2018-08-22T00:49:11.812Z,1013.21
2018-08-22T00:50:11.837Z,1013.26
2018-08-22T00:51:11.863Z,1013.17
2018-08-22T00:52:11.885Z,1013.19
2018-08-22T00:53:11.907Z,1013.11
2018-08-22T00:54:12.184Z,1013.13
2018-08-22T00:55:11.957Z,1013.16
2018-08-22T00:56:11.978Z,1013.18
2018-08-22T00:57:12.004Z,1013.15
2018-08-22T00:58:12.028Z,1013.16
2018-08-22T00:59:12.052Z,1013.19
2018-08-22T01:00:12.076Z,1013.17
2018-08-22T01:01:12.099Z,1013.15
2018-08-22T01:02:12.119Z,1013.15
2018-08-22T01:03:12.146Z,1013.15
2018-08-22T01:04:12.166Z,1013.11
2018-08-22T01:05:12.193Z,1013.14
2018-08-22T01:06:12.217Z,1013.15
2018-08-22T01:07:12.237Z,1013.10
2018-08-22T01:08:12.260Z,1013.06
2018-08-22T01:09:12.284Z,1013.09
2018-08-22T01:10:12.309Z,1013.08
2018-08-22T01:11:12.336Z,1013.09
2018-08-22T01:12:12.357Z,1013.05
2018-08-22T01:13:12.381Z,1013.04
2018-08-22T01:14:12.405Z,1013.03
2018-08-22T01:15:12.426Z,1013.03
2018-08-22T01:16:12.449Z,1013.02
2018-08-22T01:17:12.473Z,1012.97
2018-08-22T01:18:12.498Z,1012.98
2018-08-22T01:19:12.521Z,1013.00
2018-08-22T01:20:12.544Z,1012.99
2018-08-22T01:21:12.571Z,1012.98
2018-08-22T01:22:12.591Z,1012.96
2018-08-22T01:23:12.661Z,1013.01
2018-08-22T01:24:12.641Z,1013.02
2018-08-22T01:25:12.665Z,1013.01
2018-08-22T01:26:12.689Z,1012.99
2018-08-22T01:27:12.711Z,1013.03
2018-08-22T01:28:12.732Z,1013.03
2018-08-22T01:29:12.760Z,1013.02
2018-08-22T01:30:12.783Z,1013.02
2018-08-22T01:31:12.805Z,1012.98
2018-08-22T01:32:12.827Z,1013.00
2018-08-22T01:33:12.850Z,1013.01
2018-08-22T01:34:12.875Z,1013.01
2018-08-22T01:35:12.898Z,1012.99
2018-08-22T01:36:12.924Z,1013.01
2018-08-22T01:37:12.946Z,1013.01
2018-08-22T01:38:12.971Z,1013.00
2018-08-22T01:39:12.993Z,1012.98
2018-08-22T01:40:13.019Z,1012.96
2018-08-22T01:41:13.043Z,1012.97
2018-08-22T01:42:13.064Z,1012.94
2018-08-22T01:43:13.090Z,1012.98
2018-08-22T01:44:13.115Z,1012.97
2018-08-22T01:45:13.133Z,1012.96
2018-08-22T01:46:13.157Z,1012.93
2018-08-22T01:47:13.185Z,1012.93
2018-08-22T01:48:13.208Z,1012.96
2018-08-22T01:49:13.230Z,1012.95
2018-08-22T01:50:13.257Z,1012.96
2018-08-22T01:51:13.294Z,1012.92
2018-08-22T01:52:13.306Z,1012.92
2018-08-22T01:53:13.323Z,1012.93
2018-08-22T01:54:13.354Z,1012.98
2018-08-22T01:55:13.372Z,1012.94
2018-08-22T01:56:13.394Z,1012.97
2018-08-22T01:57:13.420Z,1012.96
2018-08-22T01:58:13.443Z,1012.96
2018-08-22T01:59:13.469Z,1012.93
2018-08-22T02:00:13.491Z,1012.95
2018-08-22T02:01:13.515Z,1012.94
2018-08-22T02:02:13.536Z,1012.90
2018-08-22T02:03:13.565Z,1012.90
2018-08-22T02:04:13.584Z,1012.88
2018-08-22T02:05:13.610Z,1012.90
2018-08-22T02:06:13.631Z,1012.87
2018-08-22T02:07:13.659Z,1012.83
2018-08-22T02:08:13.681Z,1012.86
2018-08-22T02:09:13.704Z,1012.86
2018-08-22T02:10:13.728Z,1012.83
2018-08-22T02:11:13.753Z,1012.83
2018-08-22T02:12:13.772Z,1012.81
2018-08-22T02:13:13.795Z,1012.83
2018-08-22T02:14:13.823Z,1012.80
2018-08-22T02:15:13.846Z,1012.80
2018-08-22T02:16:13.867Z,1012.84
2018-08-22T02:17:13.892Z,1012.80
2018-08-22T02:18:13.914Z,1012.80
2018-08-22T02:19:13.942Z,1012.79
2018-08-22T02:20:13.961Z,1012.76
2018-08-22T02:21:13.988Z,1012.79
2018-08-22T02:22:14.011Z,1012.77
2018-08-22T02:23:14.032Z,1012.75
2018-08-22T02:24:14.059Z,1012.76
2018-08-22T02:25:14.152Z,1012.77
2018-08-22T02:26:14.105Z,1012.73
2018-08-22T02:27:14.127Z,1012.75
2018-08-22T02:28:14.149Z,1012.76
2018-08-22T02:29:14.175Z,1012.75
2018-08-22T02:30:14.200Z,1012.75
2018-08-22T02:31:14.220Z,1012.75
2018-08-22T02:32:14.244Z,1012.74
2018-08-22T02:33:14.267Z,1012.70
2018-08-22T02:34:14.290Z,1012.70
2018-08-22T02:35:14.318Z,1012.68
2018-08-22T02:36:14.337Z,1012.67
2018-08-22T02:37:14.363Z,1012.67
2018-08-22T02:38:14.384Z,1012.67
2018-08-22T02:39:14.408Z,1012.67
2018-08-22T02:40:14.430Z,1012.67
2018-08-22T02:41:14.457Z,1012.73
2018-08-22T02:42:14.478Z,1012.72
2018-08-22T02:43:14.505Z,1012.67
2018-08-22T02:44:14.525Z,1012.66
2018-08-22T02:45:14.550Z,1012.63
2018-08-22T02:46:14.574Z,1012.62
2018-08-22T02:47:14.597Z,1012.60
2018-08-22T02:48:14.619Z,1012.65
2018-08-22T02:49:14.643Z,1012.58
2018-08-22T02:50:14.673Z,1012.60
2018-08-22T02:51:14.691Z,1012.62
2018-08-22T02:52:14.713Z,1012.64
2018-08-22T02:53:14.734Z,1012.60
2018-08-22T02:54:14.766Z,1012.61
2018-08-22T02:55:14.782Z,1012.59
2018-08-22T02:56:14.806Z,1012.64
2018-08-22T02:57:14.831Z,1012.62
2018-08-22T02:58:14.854Z,1012.56
2018-08-22T02:59:14.875Z,1012.64
2018-08-22T03:00:14.897Z,1012.59
2018-08-22T03:01:14.921Z,1012.61
2018-08-22T03:02:14.948Z,1012.60
2018-08-22T03:03:14.971Z,1012.55
2018-08-22T03:04:14.993Z,1012.56
2018-08-22T03:05:15.018Z,1012.55
2018-08-22T03:06:15.038Z,1012.57
2018-08-22T03:07:15.062Z,1012.60
2018-08-22T03:08:15.086Z,1012.62
2018-08-22T03:09:15.111Z,1012.60
2018-08-22T03:10:15.134Z,1012.60
2018-08-22T03:11:15.155Z,1012.62
2018-08-22T03:12:15.180Z,1012.57
2018-08-22T03:13:15.205Z,1012.57
2018-08-22T03:14:15.224Z,1012.57
2018-08-22T03:15:15.250Z,1012.56
2018-08-22T03:16:15.270Z,1012.56
2018-08-22T03:17:15.296Z,1012.58
2018-08-22T03:18:15.317Z,1012.57
2018-08-22T03:19:15.344Z,1012.60
2018-08-22T03:20:15.363Z,1012.60
2018-08-22T03:21:15.387Z,1012.56
2018-08-22T03:22:15.410Z,1012.60
2018-08-22T03:23:15.436Z,1012.58
2018-08-22T03:24:15.457Z,1012.57
2018-08-22T03:25:15.483Z,1012.56
2018-08-22T03:26:15.606Z,1012.55
2018-08-22T03:27:15.529Z,1012.54
2018-08-22T03:28:15.550Z,1012.55
2018-08-22T03:29:15.576Z,1012.51
2018-08-22T03:30:15.599Z,1012.52
2018-08-22T03:31:15.620Z,1012.57
2018-08-22T03:32:15.647Z,1012.52
2018-08-22T03:33:15.669Z,1012.49
2018-08-22T03:34:15.690Z,1012.51
2018-08-22T03:35:15.713Z,1012.48
2018-08-22T03:36:15.737Z,1012.48
2018-08-22T03:37:15.759Z,1012.49
2018-08-22T03:38:15.781Z,1012.45
2018-08-22T03:39:15.808Z,1012.46
2018-08-22T03:40:15.827Z,1012.40
2018-08-22T03:41:15.852Z,1012.42
2018-08-22T03:42:15.875Z,1012.48
2018-08-22T03:43:15.900Z,1012.42
2018-08-22T03:44:15.924Z,1012.43
2018-08-22T03:45:15.943Z,1012.42
2018-08-22T03:46:16.024Z,1012.40
2018-08-22T03:47:15.993Z,1012.42
2018-08-22T03:48:16.014Z,1012.43
2018-08-22T03:49:16.036Z,1012.41
2018-08-22T03:50:16.065Z,1012.44
2018-08-22T03:51:16.085Z,1012.38
2018-08-22T03:52:16.108Z,1012.39
2018-08-22T03:53:16.130Z,1012.45
2018-08-22T03:54:16.154Z,1012.40
2018-08-22T03:55:16.178Z,1012.43
2018-08-22T03:56:16.198Z,1012.46
2018-08-22T03:57:16.221Z,1012.43
2018-08-22T03:58:16.247Z,1012.43
2018-08-22T03:59:16.267Z,1012.40
2018-08-22T04:00:16.290Z,1012.45
2018-08-22T04:01:16.315Z,1012.40
2018-08-22T04:02:16.340Z,1012.41
2018-08-22T04:03:16.364Z,1012.45
2018-08-22T04:04:16.383Z,1012.41
2018-08-22T04:05:16.408Z,1012.39
2018-08-22T04:06:16.430Z,1012.41
2018-08-22T04:07:16.455Z,1012.44
2018-08-22T04:08:16.477Z,1012.44
2018-08-22T04:09:16.501Z,1012.45
2018-08-22T04:10:16.524Z,1012.43
2018-08-22T04:11:16.545Z,1012.42
2018-08-22T04:12:16.570Z,1012.41
2018-08-22T04:13:16.593Z,1012.40
2018-08-22T04:14:16.615Z,1012.40
2018-08-22T04:15:16.638Z,1012.37
2018-08-22T04:16:16.660Z,1012.42
2018-08-22T04:17:16.687Z,1012.39
2018-08-22T04:18:16.706Z,1012.37
2018-08-22T04:19:16.731Z,1012.39
2018-08-22T04:20:16.755Z,1012.38
2018-08-22T04:21:16.776Z,1012.40
2018-08-22T04:22:16.802Z,1012.44
2018-08-22T04:23:16.825Z,1012.43
2018-08-22T04:24:16.844Z,1012.40
2018-08-22T04:25:16.870Z,1012.40
2018-08-22T04:26:16.891Z,1012.38
2018-08-22T04:27:16.917Z,1012.38
2018-08-22T04:28:16.940Z,1012.36
2018-08-22T04:29:16.963Z,1012.39
2018-08-22T04:30:16.984Z,1012.37
2018-08-22T04:31:17.010Z,1012.40
2018-08-22T04:32:17.076Z,1012.37
2018-08-22T04:33:17.053Z,1012.39
2018-08-22T04:34:17.080Z,1012.42
2018-08-22T04:35:17.102Z,1012.39
2018-08-22T04:36:17.125Z,1012.43
2018-08-22T04:37:17.152Z,1012.40
2018-08-22T04:38:17.172Z,1012.36
2018-08-22T04:39:17.195Z,1012.42
2018-08-22T04:40:17.216Z,1012.40
2018-08-22T04:41:17.238Z,1012.40
2018-08-22T04:42:17.260Z,1012.35
2018-08-22T04:43:17.287Z,1012.40
2018-08-22T04:44:17.310Z,1012.39
2018-08-22T04:45:17.330Z,1012.36
2018-08-22T04:46:17.356Z,1012.40
2018-08-22T04:47:17.379Z,1012.40
2018-08-22T04:48:17.422Z,1012.42
2018-08-22T04:49:17.422Z,1012.44
2018-08-22T04:50:17.448Z,1012.38
2018-08-22T04:51:17.470Z,1012.40
2018-08-22T04:52:17.492Z,1012.42
2018-08-22T04:53:17.516Z,1012.46
2018-08-22T04:54:17.541Z,1012.43
2018-08-22T04:55:17.560Z,1012.44
2018-08-22T04:56:17.586Z,1012.36
2018-08-22T04:57:17.609Z,1012.34
2018-08-22T04:58:17.630Z,1012.40
2018-08-22T04:59:17.656Z,1012.39
2018-08-22T05:00:17.675Z,1012.41
2018-08-22T05:01:17.699Z,1012.44
2018-08-22T05:02:17.723Z,1012.40
2018-08-22T05:03:17.749Z,1012.46
2018-08-22T05:04:17.771Z,1012.44
2018-08-22T05:05:17.791Z,1012.44
2018-08-22T05:06:17.815Z,1012.41
2018-08-22T05:07:17.838Z,1012.43
2018-08-22T05:08:17.864Z,1012.43
2018-08-22T05:09:17.886Z,1012.45
2018-08-22T05:10:17.908Z,1012.45
2018-08-22T05:11:17.932Z,1012.42
2018-08-22T05:12:17.957Z,1012.42
2018-08-22T05:13:17.976Z,1012.42
2018-08-22T05:14:18.003Z,1012.42
2018-08-22T05:15:18.027Z,1012.46
2018-08-22T05:16:18.049Z,1012.42
2018-08-22T05:17:18.072Z,1012.48
2018-08-22T05:18:18.093Z,1012.46
2018-08-22T05:19:18.120Z,1012.48
2018-08-22T05:20:18.142Z,1012.44
2018-08-22T05:21:18.162Z,1012.39
2018-08-22T05:22:18.189Z,1012.40
2018-08-22T05:23:18.213Z,1012.39
2018-08-22T05:24:18.236Z,1012.39
2018-08-22T05:25:18.260Z,1012.45
2018-08-22T05:26:18.281Z,1012.38
2018-08-22T05:27:18.307Z,1012.40
2018-08-22T05:28:18.329Z,1012.38
2018-08-22T05:29:18.353Z,1012.36
2018-08-22T05:30:18.393Z,1012.39
2018-08-22T05:31:18.400Z,1012.36
2018-08-22T05:32:18.420Z,1012.35
2018-08-22T05:33:18.443Z,1012.38
2018-08-22T05:34:18.469Z,1012.39
2018-08-22T05:35:18.490Z,1012.35
2018-08-22T05:36:18.517Z,1012.34
2018-08-22T05:37:18.538Z,1012.31
2018-08-22T05:38:18.562Z,1012.36
2018-08-22T05:39:18.584Z,1012.32
2018-08-22T05:40:18.610Z,1012.33
2018-08-22T05:41:18.631Z,1012.33
2018-08-22T05:42:18.661Z,1012.35
2018-08-22T05:43:18.679Z,1012.31
2018-08-22T05:44:18.703Z,1012.32
2018-08-22T05:45:18.731Z,1012.36
2018-08-22T05:46:18.751Z,1012.34
2018-08-22T05:47:18.773Z,1012.29
2018-08-22T05:48:18.796Z,1012.35
2018-08-22T05:49:18.863Z,1012.33
2018-08-22T05:50:18.845Z,1012.32
2018-08-22T05:51:18.873Z,1012.32
2018-08-22T05:52:18.891Z,1012.31
2018-08-22T05:53:18.912Z,1012.35
2018-08-22T05:54:18.937Z,1012.27
2018-08-22T05:55:18.960Z,1012.31
2018-08-22T05:56:18.983Z,1012.33
2018-08-22T05:57:19.006Z,1012.31
2018-08-22T05:58:19.033Z,1012.31
2018-08-22T05:59:19.057Z,1012.31
2018-08-22T06:00:19.077Z,1012.33
2018-08-22T06:01:19.103Z,1012.36
2018-08-22T06:02:19.124Z,1012.35
2018-08-22T06:03:19.187Z,1012.38
2018-08-22T06:04:19.172Z,1012.40
2018-08-22T06:05:19.198Z,1012.38
2018-08-22T06:06:19.220Z,1012.39
2018-08-22T06:07:19.244Z,1012.37
2018-08-22T06:08:19.266Z,1012.34
2018-08-22T06:09:19.293Z,1012.37
2018-08-22T06:10:19.316Z,1012.35
2018-08-22T06:11:19.343Z,1012.33
2018-08-22T06:12:19.360Z,1012.39
2018-08-22T06:13:19.386Z,1012.39
2018-08-22T06:14:19.409Z,1012.39
2018-08-22T06:15:19.431Z,1012.38
2018-08-22T06:16:19.455Z,1012.39
2018-08-22T06:17:19.482Z,1012.36
2018-08-22T06:18:19.503Z,1012.37
2018-08-22T06:19:19.531Z,1012.36
2018-08-22T06:20:19.551Z,1012.40
2018-08-22T06:21:19.574Z,1012.42
2018-08-22T06:22:19.601Z,1012.40
2018-08-22T06:23:19.623Z,1012.40
2018-08-22T06:24:19.647Z,1012.40
2018-08-22T06:25:19.669Z,1012.44
2018-08-22T06:26:19.696Z,1012.41
2018-08-22T06:27:19.719Z,1012.39
2018-08-22T06:28:19.740Z,1012.39
2018-08-22T06:29:19.768Z,1012.40
2018-08-22T06:30:19.792Z,1012.43
2018-08-22T06:31:19.813Z,1012.37
2018-08-22T06:32:19.839Z,1012.37
2018-08-22T06:33:19.863Z,1012.42
2018-08-22T06:34:19.886Z,1012.40
2018-08-22T06:35:19.910Z,1012.41
2018-08-22T06:36:19.948Z,1012.38
2018-08-22T06:37:19.956Z,1012.38
2018-08-22T06:38:19.981Z,1012.40
2018-08-22T06:39:20.004Z,1012.37
2018-08-22T06:40:20.031Z,1012.34
2018-08-22T06:41:20.052Z,1012.33
2018-08-22T06:42:20.078Z,1012.35
2018-08-22T06:43:20.103Z,1012.37
2018-08-22T06:44:20.182Z,1012.37
2018-08-22T06:45:20.151Z,1012.38
2018-08-22T06:46:20.174Z,1012.37
2018-08-22T06:47:20.198Z,1012.33
2018-08-22T06:48:20.222Z,1012.36
2018-08-22T06:49:20.246Z,1012.39
2018-08-22T06:50:20.297Z,1012.35
2018-08-22T06:51:20.293Z,1012.40
2018-08-22T06:52:20.318Z,1012.42
2018-08-22T06:53:20.341Z,1012.39
2018-08-22T06:54:20.367Z,1012.34
2018-08-22T06:55:20.392Z,1012.36
2018-08-22T06:56:20.415Z,1012.35
2018-08-22T06:57:20.438Z,1012.36
2018-08-22T06:58:20.463Z,1012.33
2018-08-22T06:59:20.494Z,1012.33
2018-08-22T07:00:20.514Z,1012.29
2018-08-22T07:01:20.535Z,1012.30
2018-08-22T07:02:20.563Z,1012.33
2018-08-22T07:03:20.586Z,1012.30
2018-08-22T07:04:20.612Z,1012.31
2018-08-22T07:05:20.634Z,1012.27
2018-08-22T07:06:20.661Z,1012.28
2018-08-22T07:07:20.683Z,1012.24
2018-08-22T07:08:20.709Z,1012.23
2018-08-22T07:09:20.733Z,1012.19
2018-08-22T07:10:20.757Z,1012.20
2018-08-22T07:11:20.782Z,1012.20
2018-08-22T07:12:20.807Z,1012.15
2018-08-22T07:13:20.839Z,1012.13
2018-08-22T07:14:20.858Z,1012.14
2018-08-22T07:15:20.884Z,1012.16
2018-08-22T07:16:20.906Z,1012.17
2018-08-22T07:17:20.933Z,1012.13
2018-08-22T07:18:20.957Z,1012.14
2018-08-22T07:19:20.983Z,1012.13
2018-08-22T07:20:21.008Z,1012.12
2018-08-22T07:21:21.032Z,1012.14
2018-08-22T07:22:21.055Z,1012.12
2018-08-22T07:23:21.081Z,1012.10
2018-08-22T07:24:21.106Z,1012.09
2018-08-22T07:25:21.131Z,1012.13
2018-08-22T07:26:21.155Z,1012.10
2018-08-22T07:27:21.180Z,1012.10
2018-08-22T07:28:21.208Z,1012.10
2018-08-22T07:29:21.232Z,1012.13
2018-08-22T07:30:21.255Z,1012.14
2018-08-22T07:31:21.282Z,1012.16
2018-08-22T07:32:21.314Z,1012.15
2018-08-22T07:33:21.329Z,1012.18
2018-08-22T07:34:21.357Z,1012.14
2018-08-22T07:35:21.382Z,1012.20
2018-08-22T07:36:21.405Z,1012.16
2018-08-22T07:37:21.429Z,1012.23
2018-08-22T07:38:21.457Z,1012.19
2018-08-22T07:39:21.480Z,1012.18
2018-08-22T07:40:21.508Z,1012.18
2018-08-22T07:41:21.532Z,1012.20
2018-08-22T07:42:21.554Z,1012.16
2018-08-22T07:43:21.580Z,1012.18
2018-08-22T07:44:21.608Z,1012.12
2018-08-22T07:45:21.630Z,1012.19
2018-08-22T07:46:21.661Z,1012.22
2018-08-22T07:47:21.684Z,1012.19
2018-08-22T07:48:21.704Z,1012.21
2018-08-22T07:49:21.731Z,1012.20
2018-08-22T07:50:21.767Z,1012.22
2018-08-22T07:51:21.782Z,1012.23
2018-08-22T07:52:21.806Z,1012.22
2018-08-22T07:53:21.851Z,1012.18
2018-08-22T07:54:21.859Z,1012.24
2018-08-22T07:55:21.887Z,1012.22
2018-08-22T07:56:21.908Z,1012.23
2018-08-22T07:57:21.938Z,1012.20
2018-08-22T07:58:21.959Z,1012.20
2018-08-22T07:59:21.985Z,1012.24
2018-08-22T08:00:22.010Z,1012.26
2018-08-22T08:01:22.039Z,1012.27
2018-08-22T08:02:22.083Z,1012.25
2018-08-22T08:03:22.092Z,1012.26
2018-08-22T08:04:22.117Z,1012.31
2018-08-22T08:05:22.165Z,1012.29
2018-08-22T08:06:22.165Z,1012.26
2018-08-22T08:07:22.193Z,1012.25
2018-08-22T08:08:22.217Z,1012.23
2018-08-22T08:09:22.243Z,1012.25
2018-08-22T08:10:22.272Z,1012.24
2018-08-22T08:11:22.295Z,1012.25
2018-08-22T08:12:22.323Z,1012.26
2018-08-22T08:13:22.344Z,1012.25
2018-08-22T08:14:22.374Z,1012.23
2018-08-22T08:15:22.398Z,1012.23
2018-08-22T08:16:22.425Z,1012.21
2018-08-22T08:17:22.455Z,1012.24
2018-08-22T08:18:22.478Z,1012.22
2018-08-22T08:19:22.510Z,1012.23
2018-08-22T08:20:22.528Z,1012.19
2018-08-22T08:21:22.557Z,1012.24
2018-08-22T08:22:22.580Z,1012.23
2018-08-22T08:23:22.609Z,1012.24
2018-08-22T08:24:22.632Z,1012.25
2018-08-22T08:25:22.661Z,1012.25
2018-08-22T08:26:22.686Z,1012.19
2018-08-22T08:27:22.710Z,1012.25
2018-08-22T08:28:22.741Z,1012.23
2018-08-22T08:29:22.765Z,1012.22
2018-08-22T08:30:22.792Z,1012.18
2018-08-22T08:31:22.823Z,1012.21
2018-08-22T08:32:22.845Z,1012.17
2018-08-22T08:33:22.870Z,1012.16
2018-08-22T08:34:22.901Z,1012.21
2018-08-22T08:35:22.927Z,1012.17
2018-08-22T08:36:22.954Z,1012.15
2018-08-22T08:37:22.980Z,1012.17
2018-08-22T08:38:23.006Z,1012.15
2018-08-22T08:39:23.030Z,1012.16
2018-08-22T08:40:23.079Z,1012.15
2018-08-22T08:41:23.088Z,1012.12
2018-08-22T08:42:23.112Z,1012.12
2018-08-22T08:43:23.197Z,1012.15
2018-08-22T08:44:23.166Z,1012.12
2018-08-22T08:45:23.193Z,1012.10
2018-08-22T08:46:23.218Z,1012.11
2018-08-22T08:47:23.275Z,1012.12
2018-08-22T08:48:23.275Z,1012.13
2018-08-22T08:49:23.357Z,1012.10
2018-08-22T08:50:23.329Z,1012.12
2018-08-22T08:51:23.355Z,1012.07
2018-08-22T08:52:23.381Z,1012.07
2018-08-22T08:53:23.407Z,1012.09
2018-08-22T08:54:23.438Z,1012.06
2018-08-22T08:55:23.565Z,1012.06
2018-08-22T08:56:23.495Z,1012.03
2018-08-22T08:57:23.583Z,1011.98
2018-08-22T08:58:23.544Z,1012.00
2018-08-22T08:59:23.571Z,1012.00
2018-08-22T09:00:23.601Z,1011.96
2018-08-22T09:01:23.628Z,1011.97
2018-08-22T09:02:23.653Z,1011.95
2018-08-22T09:03:23.680Z,1011.96
2018-08-22T09:04:23.710Z,1011.94
2018-08-22T09:05:24.036Z,1011.93
2018-08-22T09:06:23.815Z,1011.95
2018-08-22T09:07:23.793Z,1011.92
2018-08-22T09:08:23.819Z,1011.88
2018-08-22T09:09:24.551Z,1011.93
2018-08-22T09:10:23.874Z,1011.84
2018-08-22T09:11:23.903Z,1011.83
2018-08-22T09:12:24.034Z,1011.84
2018-08-22T09:13:23.957Z,1011.82
2018-08-22T09:14:23.984Z,1011.84
2018-08-22T09:15:24.110Z,1011.82
2018-08-22T09:16:24.037Z,1011.85
2018-08-22T09:17:24.076Z,1011.82
2018-08-22T09:18:24.095Z,1011.81
2018-08-22T09:19:24.173Z,1011.78
2018-08-22T09:20:24.146Z,1011.79
2018-08-22T09:21:24.211Z,1011.78
2018-08-22T09:22:24.203Z,1011.78
2018-08-22T09:23:24.231Z,1011.74
2018-08-22T09:24:24.260Z,1011.77
2018-08-22T09:25:24.643Z,1011.73
2018-08-22T09:26:24.319Z,1011.73
2018-08-22T09:27:24.345Z,1011.69
2018-08-22T09:28:24.377Z,1011.70
2018-08-22T09:29:24.446Z,1011.66
2018-08-22T09:30:24.427Z,1011.69
2018-08-22T09:31:24.477Z,1011.67
2018-08-22T09:32:24.481Z,1011.68
2018-08-22T09:33:24.512Z,1011.66
2018-08-22T09:34:24.566Z,1011.66
2018-08-22T09:35:24.625Z,1011.63
2018-08-22T09:36:24.600Z,1011.67
2018-08-22T09:37:24.625Z,1011.69
2018-08-22T09:38:24.651Z,1011.65
2018-08-22T09:39:24.683Z,1011.65
2018-08-22T09:40:24.716Z,1011.61
2018-08-22T09:41:24.736Z,1011.59
2018-08-22T09:42:24.761Z,1011.64
2018-08-22T09:43:24.790Z,1011.61
2018-08-22T09:44:24.820Z,1011.63
2018-08-22T09:45:24.852Z,1011.61
2018-08-22T09:46:24.876Z,1011.59
2018-08-22T09:47:24.902Z,1011.62
2018-08-22T09:48:24.930Z,1011.63
2018-08-22T09:49:25.014Z,1011.60
2018-08-22T09:50:24.989Z,1011.60
2018-08-22T09:51:25.015Z,1011.57
2018-08-22T09:52:25.046Z,1011.56
2018-08-22T09:53:25.073Z,1011.54
2018-08-22T09:54:25.150Z,1011.59
2018-08-22T09:55:25.128Z,1011.58
2018-08-22T09:56:25.156Z,1011.58
2018-08-22T09:57:25.187Z,1011.54
2018-08-22T09:58:25.215Z,1011.55
2018-08-22T09:59:25.242Z,1011.58
2018-08-22T10:00:25.272Z,1011.55
2018-08-22T10:01:25.302Z,1011.52
2018-08-22T10:02:25.327Z,1011.52
2018-08-22T10:03:25.356Z,1011.49
2018-08-22T10:04:25.392Z,1011.45
2018-08-22T10:05:25.415Z,1011.50
2018-08-22T10:06:25.454Z,1011.47
2018-08-22T10:07:25.476Z,1011.43
2018-08-22T10:08:25.497Z,1011.39
2018-08-22T10:09:25.550Z,1011.41
2018-08-22T10:10:25.568Z,1011.39
2018-08-22T10:11:25.583Z,1011.37
2018-08-22T10:12:25.611Z,1011.34
2018-08-22T10:13:25.640Z,1011.35
2018-08-22T10:14:25.671Z,1011.36
2018-08-22T10:15:25.698Z,1011.32
2018-08-22T10:16:25.727Z,1011.31
2018-08-22T10:17:26.122Z,1011.28
2018-08-22T10:18:25.786Z,1011.24
2018-08-22T10:19:25.819Z,1011.24
2018-08-22T10:20:25.840Z,1011.20
2018-08-22T10:21:25.872Z,1011.17
2018-08-22T10:22:25.896Z,1011.23
2018-08-22T10:23:25.944Z,1011.23
2018-08-22T10:24:25.953Z,1011.23
2018-08-22T10:25:25.984Z,1011.20
2018-08-22T10:26:26.017Z,1011.22
2018-08-22T10:27:26.042Z,1011.16
2018-08-22T10:28:26.069Z,1011.16
2018-08-22T10:29:26.401Z,1011.17
2018-08-22T10:30:26.128Z,1011.13
2018-08-22T10:31:26.157Z,1011.13
2018-08-22T10:32:26.183Z,1011.12
2018-08-22T10:33:26.215Z,1011.10
2018-08-22T10:34:26.243Z,1011.11
2018-08-22T10:35:26.272Z,1011.12
2018-08-22T10:36:26.297Z,1011.13
2018-08-22T10:37:26.334Z,1011.09
2018-08-22T10:38:26.411Z,1011.06
2018-08-22T10:39:26.436Z,1011.06
2018-08-22T10:40:26.415Z,1011.07
2018-08-22T10:41:26.443Z,1011.10
2018-08-22T10:42:26.473Z,1011.11
2018-08-22T10:43:26.502Z,1011.11
2018-08-22T10:44:26.561Z,1011.08
2018-08-22T10:45:26.557Z,1011.13
2018-08-22T10:46:26.590Z,1011.08
2018-08-22T10:47:26.616Z,1011.12
2018-08-22T10:48:26.650Z,1011.13
2018-08-22T10:49:26.685Z,1011.08
2018-08-22T10:50:26.709Z,1011.07
2018-08-22T10:51:26.731Z,1011.09
2018-08-22T10:52:26.759Z,1011.12
2018-08-22T10:53:26.788Z,1011.10
2018-08-22T10:54:26.820Z,1011.12
2018-08-22T10:55:26.885Z,1011.09
2018-08-22T10:56:27.146Z,1011.12
2018-08-22T10:57:26.906Z,1011.09
2018-08-22T10:58:26.935Z,1011.12
2018-08-22T10:59:26.964Z,1011.07
2018-08-22T11:00:26.991Z,1011.10
2018-08-22T11:01:27.025Z,1011.11
2018-08-22T11:02:27.050Z,1011.06
2018-08-22T11:03:27.079Z,1011.08
2018-08-22T11:04:27.106Z,1011.05
2018-08-22T11:05:27.140Z,1011.10
2018-08-22T11:06:27.166Z,1011.09
2018-08-22T11:07:27.198Z,1011.05
2018-08-22T11:08:27.242Z,1011.07
2018-08-22T11:09:27.254Z,1011.05
2018-08-22T11:10:27.285Z,1011.09
2018-08-22T11:11:27.312Z,1011.10
2018-08-22T11:12:27.343Z,1011.10
2018-08-22T11:13:27.372Z,1011.03
2018-08-22T11:14:27.401Z,1011.03
2018-08-22T11:15:27.429Z,1011.04
2018-08-22T11:16:27.456Z,1010.99
2018-08-22T11:17:27.538Z,1010.96
2018-08-22T11:18:27.515Z,1011.03
2018-08-22T11:19:27.547Z,1011.02
2018-08-22T11:20:27.572Z,1011.03
2018-08-22T11:21:27.609Z,1011.01
2018-08-22T11:22:27.664Z,1010.98
2018-08-22T11:23:27.665Z,1010.94
2018-08-22T11:24:27.700Z,1010.93
2018-08-22T11:25:27.724Z,1010.91
2018-08-22T11:26:27.749Z,1010.91
2018-08-22T11:27:27.778Z,1010.92
2018-08-22T11:28:27.808Z,1010.92
2018-08-22T11:29:27.837Z,1010.92
2018-08-22T11:30:27.869Z,1010.88
2018-08-22T11:31:27.925Z,1010.91
2018-08-22T11:32:27.924Z,1010.91
2018-08-22T11:33:27.956Z,1010.89
2018-08-22T11:34:28.435Z,1010.84
2018-08-22T11:35:28.315Z,1010.91
2018-08-22T11:36:28.041Z,1010.81
2018-08-22T11:37:28.074Z,1010.89
2018-08-22T11:38:28.099Z,1010.86
2018-08-22T11:39:28.132Z,1010.86
2018-08-22T11:40:28.161Z,1010.86
2018-08-22T11:41:28.190Z,1010.79
2018-08-22T11:42:28.219Z,1010.81
2018-08-22T11:43:28.249Z,1010.80
2018-08-22T11:44:28.279Z,1010.81
2018-08-22T11:45:28.310Z,1010.85
2018-08-22T11:46:28.335Z,1010.82
2018-08-22T11:47:28.370Z,1010.76
2018-08-22T11:48:28.435Z,1010.71
2018-08-22T11:49:28.425Z,1010.72
2018-08-22T11:50:28.455Z,1010.74
2018-08-22T11:51:28.483Z,1010.75
2018-08-22T11:52:28.515Z,1010.76
2018-08-22T11:53:28.548Z,1010.77
2018-08-22T11:54:28.575Z,1010.74
2018-08-22T11:55:28.606Z,1010.74
2018-08-22T11:56:28.632Z,1010.74
2018-08-22T11:57:28.660Z,1010.70
2018-08-22T11:58:28.688Z,1010.72
2018-08-22T11:59:28.720Z,1010.71
2018-08-22T12:00:28.748Z,1010.61
2018-08-22T12:01:28.778Z,1010.64
2018-08-22T12:02:28.809Z,1010.67
2018-08-22T12:03:28.836Z,1010.71
2018-08-22T12:04:28.933Z,1010.65
2018-08-22T12:05:28.898Z,1010.67